VTSS/HDY METAR and TAF weather

Enter ICAO airport designator
Station Type Date Time Source
VTSS METAR 2019/08/22 19:30 UTC NOAA

VTSS 221930Z 00000KT 9999 FEW020 24/23 Q1010 NOSIG


Station Type Date Time Source
VTSS Decoded METAR 2019/08/22 19:30 UTC NOAA

Station name not available
Aug 22, 2019 - 03:30 PM EDT / 2019.08.22 1930 UTC
Wind: Calm:0
Visibility: greater than 7 mile(s):0
Sky conditions: mostly clear
Temperature: 75 F (24 C)
Dew Point: 73 F (23 C)
Relative Humidity: 94%
Pressure (altimeter): 29.83 in. Hg (1010 hPa)
ob: VTSS 221930Z 00000KT 9999 FEW020 24/23 Q1010 NOSIG
cycle: 19

Station Type Date Time Source
VTSS TAF 2019/08/22 18:36 UTC NOAA

TAF VTSS 221700Z 2218/2318 12004KT 9999 FEW020
TEMPO 2305/2311 24010G20KT 5000 TSRA FEW016CB SCT018 BKN100

Example: see airport list